createdAt,value
2022-08-05T00:01:21.030Z,59.86
2022-08-05T00:04:28.488Z,60.05
2022-08-05T00:08:00.120Z,61.09
2022-08-05T00:11:01.962Z,61.27
2022-08-05T00:14:11.954Z,62.92
2022-08-05T00:17:19.673Z,60.76
2022-08-05T00:20:29.025Z,60.91
2022-08-05T00:23:45.700Z,60.85
2022-08-05T00:26:53.635Z,61.68
2022-08-05T00:30:00.402Z,63.15
2022-08-05T00:33:15.517Z,63.14
2022-08-05T00:37:12.653Z,63.83
2022-08-05T00:40:01.151Z,63.92
2022-08-05T00:43:08.171Z,64.59
2022-08-05T00:46:16.169Z,63.97
2022-08-05T00:49:21.672Z,62.47
2022-08-05T00:52:28.702Z,61.41
2022-08-05T00:55:42.865Z,61.39
2022-08-05T00:58:49.834Z,62.49
2022-08-05T01:01:55.455Z,62.69
2022-08-05T01:05:00.682Z,63.00
2022-08-05T01:08:39.898Z,61.67
2022-08-05T01:11:39.968Z,61.39
2022-08-05T01:15:06.546Z,62.46
2022-08-05T01:18:41.355Z,63.28
2022-08-05T01:22:28.166Z,64.12
2022-08-05T01:26:02.775Z,61.08
2022-08-05T01:29:23.111Z,61.01
2022-08-05T01:32:31.672Z,59.50
2022-08-05T01:35:50.756Z,60.57
2022-08-05T01:39:01.181Z,60.98
2022-08-05T01:42:12.053Z,60.87
2022-08-05T01:45:21.485Z,60.60
2022-08-05T01:48:29.361Z,60.85
2022-08-05T01:51:36.611Z,61.24
2022-08-05T01:54:49.199Z,61.85
2022-08-05T01:58:29.499Z,61.18
2022-08-05T02:01:28.283Z,62.40
2022-08-05T02:04:43.278Z,60.70
2022-08-05T02:07:59.808Z,61.13
2022-08-05T02:11:11.649Z,62.26
2022-08-05T02:14:29.315Z,61.56
2022-08-05T02:18:31.484Z,61.89
2022-08-05T02:21:42.891Z,62.34
2022-08-05T02:24:56.581Z,61.33
2022-08-05T02:28:08.684Z,61.22
2022-08-05T02:31:28.449Z,61.39
2022-08-05T02:34:42.173Z,61.09
2022-08-05T02:37:53.991Z,61.94
2022-08-05T02:41:00.766Z,61.28
2022-08-05T02:44:24.075Z,61.74
2022-08-05T02:47:58.595Z,61.45
2022-08-05T02:51:01.723Z,62.17
2022-08-05T02:54:07.953Z,61.62
2022-08-05T02:58:10.788Z,61.88
2022-08-05T03:00:46.098Z,63.26
2022-08-05T03:04:02.800Z,63.58
2022-08-05T03:07:40.296Z,64.56
2022-08-05T03:10:37.244Z,64.95
2022-08-05T03:13:51.987Z,67.49
2022-08-05T03:17:09.168Z,68.83
2022-08-05T03:20:15.341Z,67.88
2022-08-05T03:23:24.174Z,67.15
2022-08-05T03:26:32.414Z,63.28
2022-08-05T03:29:45.424Z,64.61
2022-08-05T03:33:07.258Z,65.63
2022-08-05T03:36:13.222Z,63.73
2022-08-05T03:39:20.136Z,64.34
2022-08-05T03:42:33.116Z,63.52
2022-08-05T03:45:59.019Z,65.35
2022-08-05T03:49:05.145Z,63.57
2022-08-05T03:52:36.559Z,62.72
2022-08-05T03:56:10.566Z,66.52
2022-08-05T03:59:29.267Z,66.78
2022-08-05T04:02:58.597Z,65.71
2022-08-05T04:06:06.737Z,65.58
2022-08-05T04:09:25.863Z,64.73
2022-08-05T04:15:39.732Z,65.29
2022-08-05T04:19:10.629Z,64.83
2022-08-05T04:22:20.505Z,66.05
2022-08-05T04:25:57.956Z,65.07
2022-08-05T04:28:52.397Z,65.69
2022-08-05T04:31:57.798Z,65.62
2022-08-05T04:35:03.174Z,66.19
2022-08-05T04:38:11.064Z,66.68
2022-08-05T04:41:21.726Z,66.64
2022-08-05T04:44:43.238Z,65.33
2022-08-05T04:47:50.231Z,65.02
2022-08-05T04:51:01.630Z,65.81
2022-08-05T04:54:09.690Z,65.43
2022-08-05T04:57:15.870Z,65.94
2022-08-05T05:00:23.589Z,66.13
2022-08-05T05:03:32.503Z,64.44
2022-08-05T05:06:52.033Z,64.34
2022-08-05T05:10:06.329Z,64.86
2022-08-05T05:13:14.962Z,65.54
2022-08-05T05:16:20.683Z,65.35
2022-08-05T05:19:36.992Z,64.99
2022-08-05T05:22:52.575Z,64.62
2022-08-05T05:25:57.878Z,63.95
2022-08-05T05:29:10.140Z,64.42
2022-08-05T05:32:20.538Z,63.63
2022-08-05T05:35:26.614Z,63.42
2022-08-05T05:38:35.362Z,63.96
2022-08-05T05:41:41.922Z,62.36
2022-08-05T05:44:47.998Z,63.07
2022-08-05T05:48:06.247Z,62.51
2022-08-05T05:51:19.842Z,61.76
2022-08-05T05:54:49.789Z,61.76
2022-08-05T05:57:52.829Z,62.76
2022-08-05T06:01:02.059Z,62.51
2022-08-05T06:04:13.177Z,62.26
2022-08-05T06:07:22.478Z,61.25
2022-08-05T06:10:29.532Z,60.88
2022-08-05T06:13:50.448Z,60.91
2022-08-05T06:17:02.086Z,59.58
2022-08-05T06:20:28.696Z,57.71
2022-08-05T06:23:44.234Z,58.23
2022-08-05T06:26:52.397Z,58.48
2022-08-05T06:30:04.602Z,58.56
2022-08-05T06:33:33.261Z,58.15
2022-08-05T06:36:57.429Z,58.16
2022-08-05T06:40:05.987Z,57.14
2022-08-05T06:43:58.163Z,56.40
2022-08-05T06:46:38.457Z,54.75
2022-08-05T06:50:01.385Z,53.00
2022-08-05T06:53:22.370Z,52.96
2022-08-05T06:56:34.469Z,52.16
2022-08-05T06:59:42.210Z,52.16
2022-08-05T07:02:54.406Z,52.48
2022-08-05T07:06:05.963Z,52.36
2022-08-05T07:09:19.801Z,53.25
2022-08-05T07:12:49.424Z,53.46
2022-08-05T07:16:13.558Z,53.61
2022-08-05T07:23:06.562Z,53.83
2022-08-05T07:26:13.313Z,52.72
2022-08-05T07:29:20.187Z,52.06
2022-08-05T07:32:46.492Z,51.36
2022-08-05T07:36:05.889Z,50.30
2022-08-05T07:40:26.150Z,49.09
2022-08-05T07:42:50.906Z,48.80
2022-08-05T07:45:58.237Z,48.03
2022-08-05T07:49:07.773Z,47.41
2022-08-05T07:52:13.732Z,48.21
2022-08-05T07:55:44.510Z,46.86
2022-08-05T07:58:57.851Z,46.18
2022-08-05T08:02:05.321Z,46.44
2022-08-05T08:05:11.590Z,46.61
2022-08-05T08:08:19.922Z,47.31
2022-08-05T08:11:27.817Z,47.09
2022-08-05T08:14:51.850Z,45.91
2022-08-05T08:17:57.556Z,46.87
2022-08-05T08:21:09.709Z,44.51
2022-08-05T08:24:21.863Z,44.69
2022-08-05T08:27:51.438Z,45.67
2022-08-05T08:30:57.160Z,45.65
2022-08-05T08:34:02.898Z,43.89
2022-08-05T08:37:08.627Z,44.34
2022-08-05T08:40:14.899Z,44.15
2022-08-05T08:45:20.785Z,43.89
2022-08-05T08:46:49.594Z,42.79
2022-08-05T08:50:13.136Z,44.18
2022-08-05T08:53:27.858Z,40.55
2022-08-05T08:56:35.083Z,41.22
2022-08-05T08:59:47.156Z,41.21
2022-08-05T09:02:55.257Z,43.54
2022-08-05T09:06:08.765Z,42.79
2022-08-05T09:09:16.822Z,44.47
2022-08-05T09:12:27.811Z,44.02
2022-08-05T09:15:36.838Z,44.08
2022-08-05T09:18:44.888Z,44.13
2022-08-05T09:22:23.393Z,43.77
2022-08-05T09:25:23.911Z,43.41
2022-08-05T09:28:48.287Z,42.51
2022-08-05T09:32:40.092Z,42.84
2022-08-05T09:35:32.787Z,42.37
2022-08-05T09:38:38.745Z,43.47
2022-08-05T09:41:59.137Z,42.92
2022-08-05T09:46:04.945Z,43.60
2022-08-05T09:48:35.367Z,41.90
2022-08-05T09:51:42.672Z,42.33
2022-08-05T09:55:58.138Z,44.41
2022-08-05T09:58:38.704Z,42.57
2022-08-05T10:01:48.543Z,42.63
2022-08-05T10:05:10.766Z,41.23
2022-08-05T10:08:37.249Z,41.59
2022-08-05T10:11:45.752Z,40.77
2022-08-05T10:14:54.502Z,41.99
2022-08-05T10:18:17.432Z,41.25
2022-08-05T10:21:22.953Z,41.73
2022-08-05T10:24:29.039Z,40.88
2022-08-05T10:28:09.455Z,41.49
2022-08-05T10:32:51.660Z,42.45
2022-08-05T10:34:29.973Z,39.19
2022-08-05T10:37:44.364Z,39.57
2022-08-05T10:40:52.377Z,40.29
2022-08-05T10:44:09.371Z,38.10
2022-08-05T10:47:26.574Z,38.53
2022-08-05T10:50:37.140Z,36.94
2022-08-05T10:53:55.004Z,36.58
2022-08-05T10:57:00.753Z,37.62
2022-08-05T11:00:22.632Z,36.70
2022-08-05T11:03:29.786Z,37.12
2022-08-05T11:06:36.670Z,35.33
2022-08-05T11:09:46.148Z,35.24
2022-08-05T11:12:55.060Z,35.61
2022-08-05T11:16:33.683Z,36.31
2022-08-05T11:20:10.526Z,37.57
2022-08-05T11:23:33.745Z,37.13
2022-08-05T11:27:51.475Z,37.74
2022-08-05T11:30:58.447Z,37.87
2022-08-05T11:34:08.187Z,37.72
2022-08-05T11:38:36.900Z,38.38
2022-08-05T11:41:57.962Z,38.84
2022-08-05T11:45:14.569Z,40.96
2022-08-05T11:48:33.527Z,40.58
2022-08-05T11:51:44.756Z,40.86
2022-08-05T11:54:55.801Z,38.06
2022-08-05T11:58:10.385Z,37.53
2022-08-05T12:01:21.451Z,36.29
2022-08-05T12:04:29.630Z,36.40
2022-08-05T12:08:08.837Z,35.23
2022-08-05T12:11:06.336Z,36.79
2022-08-05T12:14:12.319Z,37.28
2022-08-05T12:18:03.724Z,36.77
2022-08-05T12:20:43.556Z,37.92
2022-08-05T12:24:11.317Z,37.42
2022-08-05T12:27:25.708Z,37.98
2022-08-05T12:30:39.192Z,37.66
2022-08-05T12:33:51.649Z,37.76
2022-08-05T12:37:11.031Z,37.77
2022-08-05T12:40:29.657Z,37.70
2022-08-05T12:43:36.416Z,38.24
2022-08-05T12:46:53.075Z,37.82
2022-08-05T12:50:04.340Z,37.52
2022-08-05T12:53:17.369Z,38.57
2022-08-05T12:56:34.908Z,38.08
2022-08-05T13:01:58.168Z,37.09
2022-08-05T13:03:14.721Z,35.60
2022-08-05T13:06:20.277Z,36.40
2022-08-05T13:09:28.735Z,36.33
2022-08-05T13:12:50.752Z,37.35
2022-08-05T13:16:03.350Z,36.41
2022-08-05T13:19:16.072Z,37.01
2022-08-05T13:22:28.458Z,36.83
2022-08-05T13:25:52.437Z,36.56
2022-08-05T13:29:01.358Z,36.36
2022-08-05T13:32:06.913Z,36.80
2022-08-05T13:35:14.801Z,36.87
2022-08-05T13:38:31.206Z,36.93
2022-08-05T13:41:41.744Z,36.15
2022-08-05T13:44:47.904Z,36.94
2022-08-05T13:48:09.953Z,37.28
2022-08-05T13:51:36.616Z,36.71
2022-08-05T13:54:53.239Z,37.51
2022-08-05T13:57:59.650Z,36.23
2022-08-05T14:01:06.180Z,36.97
2022-08-05T14:04:31.561Z,36.37
2022-08-05T14:07:59.945Z,35.76
2022-08-05T14:11:20.157Z,36.89
2022-08-05T14:14:30.843Z,36.94
2022-08-05T14:17:39.878Z,36.96
2022-08-05T14:20:48.947Z,37.66
2022-08-05T14:24:00.566Z,37.71
2022-08-05T14:27:18.199Z,36.60
2022-08-05T14:30:26.583Z,37.42
2022-08-05T14:34:00.089Z,37.31
2022-08-05T14:37:00.209Z,37.07
2022-08-05T14:40:07.086Z,37.83
2022-08-05T14:43:12.546Z,38.44
2022-08-05T14:46:19.613Z,37.91
2022-08-05T14:49:25.565Z,36.71
2022-08-05T14:56:57.379Z,36.58
2022-08-05T15:00:04.140Z,36.74
2022-08-05T15:03:10.051Z,36.53
2022-08-05T15:06:16.015Z,36.24
2022-08-05T15:09:51.201Z,36.59
2022-08-05T15:13:00.627Z,35.34
2022-08-05T15:16:07.605Z,36.84
2022-08-05T15:19:23.909Z,35.89
2022-08-05T15:22:29.450Z,37.16
2022-08-05T15:25:51.501Z,36.94
2022-08-05T15:28:58.886Z,36.21
2022-08-05T15:32:08.220Z,36.73
2022-08-05T15:35:14.995Z,36.21
2022-08-05T15:38:34.622Z,35.45
2022-08-05T15:41:55.531Z,35.61
2022-08-05T15:45:02.413Z,36.31
2022-08-05T15:48:08.035Z,35.42
2022-08-05T15:51:13.411Z,35.39
2022-08-05T15:54:19.962Z,34.34
2022-08-05T15:57:41.957Z,34.90
2022-08-05T16:01:11.560Z,35.19
2022-08-05T16:04:18.045Z,34.85
2022-08-05T16:07:24.107Z,36.22
2022-08-05T16:10:29.295Z,36.45
2022-08-05T16:13:35.017Z,36.44
2022-08-05T16:16:40.557Z,35.01
2022-08-05T16:20:05.075Z,35.76
2022-08-05T16:23:11.369Z,37.30
2022-08-05T16:26:18.206Z,37.10
2022-08-05T16:29:24.747Z,37.79
2022-08-05T16:32:30.468Z,37.59
2022-08-05T16:35:42.181Z,38.60
2022-08-05T16:38:55.134Z,39.01
2022-08-05T16:42:14.339Z,38.48
2022-08-05T16:46:04.549Z,38.47
2022-08-05T16:48:48.587Z,39.85
2022-08-05T16:51:54.820Z,39.41
2022-08-05T16:55:02.065Z,40.46
2022-08-05T16:58:10.509Z,38.93
2022-08-05T17:01:19.765Z,39.99
2022-08-05T17:04:28.119Z,39.94
2022-08-05T17:07:43.474Z,40.18
2022-08-05T17:10:59.678Z,41.07
2022-08-05T17:14:06.562Z,42.52
2022-08-05T17:17:15.033Z,43.59
2022-08-05T17:20:21.404Z,41.60
2022-08-05T17:24:04.615Z,43.38
2022-08-05T17:26:52.917Z,43.89
2022-08-05T17:29:59.753Z,43.76
2022-08-05T17:33:08.557Z,44.72
2022-08-05T17:36:33.783Z,43.99
2022-08-05T17:39:40.598Z,43.66
2022-08-05T17:42:53.124Z,43.63
2022-08-05T17:45:58.883Z,43.43
2022-08-05T17:49:05.936Z,43.51
2022-08-05T17:52:12.497Z,44.17
2022-08-05T17:55:18.539Z,44.68
2022-08-05T17:58:32.240Z,45.29
2022-08-05T18:01:48.486Z,47.15
2022-08-05T18:04:56.591Z,49.03
2022-08-05T18:08:02.031Z,50.96
2022-08-05T18:11:08.301Z,51.83
2022-08-05T18:14:20.457Z,52.03
2022-08-05T18:18:01.655Z,52.58
2022-08-05T18:20:52.543Z,53.24
2022-08-05T18:24:04.292Z,53.17
2022-08-05T18:27:16.589Z,52.95
2022-08-05T18:30:26.305Z,52.85
2022-08-05T18:33:37.586Z,53.01
2022-08-05T18:36:54.234Z,53.56
2022-08-05T18:40:57.610Z,55.25
2022-08-05T18:43:25.933Z,54.75
2022-08-05T18:46:37.273Z,55.92
2022-08-05T18:50:04.653Z,55.57
2022-08-05T18:53:19.387Z,56.01
2022-08-05T18:56:28.582Z,53.38
2022-08-05T18:59:44.174Z,53.54
2022-08-05T19:03:03.649Z,54.39
2022-08-05T19:06:18.706Z,54.78
2022-08-05T19:09:27.300Z,54.46
2022-08-05T19:12:34.378Z,49.88
2022-08-05T19:15:59.900Z,48.92
2022-08-05T19:19:05.601Z,46.96
2022-08-05T19:22:12.886Z,46.67
2022-08-05T19:25:30.695Z,46.04
2022-08-05T19:28:46.153Z,45.40
2022-08-05T19:31:53.191Z,45.86
2022-08-05T19:34:59.107Z,45.48
2022-08-05T19:38:11.857Z,45.50
2022-08-05T19:41:21.927Z,45.55
2022-08-05T19:44:45.322Z,46.29
2022-08-05T19:47:55.698Z,45.07
2022-08-05T19:51:01.954Z,44.92
2022-08-05T19:54:26.955Z,45.40
2022-08-05T19:57:49.303Z,45.14
2022-08-05T20:01:02.492Z,45.12
2022-08-05T20:04:11.522Z,45.35
2022-08-05T20:07:48.358Z,45.65
2022-08-05T20:10:43.294Z,45.92
2022-08-05T20:13:58.703Z,46.04
2022-08-05T20:17:16.301Z,46.19
2022-08-05T20:20:23.202Z,45.92
2022-08-05T20:23:39.843Z,45.77
2022-08-05T20:26:55.843Z,46.32
2022-08-05T20:30:02.716Z,47.06
2022-08-05T20:33:09.122Z,46.54
2022-08-05T20:36:16.189Z,46.82
2022-08-05T20:39:22.828Z,46.54
2022-08-05T20:42:28.413Z,46.98
2022-08-05T20:45:56.490Z,46.62
2022-08-05T20:48:59.862Z,47.43
2022-08-05T20:52:10.721Z,47.16
2022-08-05T20:55:54.899Z,47.17
2022-08-05T20:58:43.979Z,47.40
2022-08-05T21:01:52.116Z,47.28
2022-08-05T21:04:57.747Z,47.85
2022-08-05T21:08:07.137Z,48.22
2022-08-05T21:12:06.559Z,51.21
2022-08-05T21:14:40.018Z,52.55
2022-08-05T21:17:46.354Z,52.04
2022-08-05T21:20:55.820Z,51.25
2022-08-05T21:24:01.453Z,51.47
2022-08-05T21:27:10.191Z,51.38
2022-08-05T21:30:17.398Z,51.00
2022-08-05T21:33:23.575Z,52.61
2022-08-05T21:36:30.159Z,53.01
2022-08-05T21:39:40.250Z,53.24
2022-08-05T21:42:47.512Z,52.14
2022-08-05T21:45:57.811Z,53.55
2022-08-05T21:49:10.889Z,54.29
2022-08-05T21:52:35.062Z,55.27
2022-08-05T21:56:01.400Z,55.53
2022-08-05T21:59:07.945Z,56.16
2022-08-05T22:02:28.825Z,54.93
2022-08-05T22:05:48.917Z,55.49
2022-08-05T22:08:55.623Z,54.89
2022-08-05T22:12:10.679Z,54.20
2022-08-05T22:16:01.991Z,55.14
2022-08-05T22:18:43.607Z,54.45
2022-08-05T22:21:55.412Z,52.45
2022-08-05T22:25:27.262Z,52.01
2022-08-05T22:28:33.633Z,51.33
2022-08-05T22:31:44.589Z,51.47
2022-08-05T22:34:50.419Z,52.74
2022-08-05T22:37:59.179Z,53.04
2022-08-05T22:41:09.410Z,53.40
2022-08-05T22:44:16.502Z,52.96
2022-08-05T22:47:29.256Z,52.82
2022-08-05T22:50:36.448Z,53.69
2022-08-05T22:53:55.053Z,53.82
2022-08-05T22:57:00.958Z,53.60
2022-08-05T23:00:10.271Z,51.66
2022-08-05T23:03:23.402Z,51.57
2022-08-05T23:06:49.266Z,53.72
2022-08-05T23:10:01.096Z,55.42
2022-08-05T23:13:08.230Z,55.43
2022-08-05T23:16:14.195Z,54.87
2022-08-05T23:19:38.596Z,55.22
2022-08-05T23:22:56.026Z,54.93
2022-08-05T23:26:01.987Z,55.02
2022-08-05T23:29:09.844Z,52.67
2022-08-05T23:32:23.084Z,51.62
2022-08-05T23:35:34.399Z,52.16
2022-08-05T23:38:40.260Z,52.95
2022-08-05T23:41:48.372Z,55.04
2022-08-05T23:44:54.680Z,57.15
2022-08-05T23:48:03.221Z,56.69
2022-08-05T23:51:10.456Z,55.74
2022-08-05T23:54:25.993Z,55.59
2022-08-05T23:57:32.383Z,57.46
